Time;durP1;ratioP1;P1;durP2;ratioP2;P2;SDS_P1;SDS_P2;PMS_P1;PMS_P2;Temp;Humidity;BMP_temperature;BMP_pressure;BME280_temperature;BME280_humidity;BME280_pressure;Samples;Min_cycle;Max_cycle;Signal;HPM_P1;HPM_P2
2022/01/04 00:00:04;;;;;;;14.20;4.00;;;5.20;99.90;;;;;;4935685;29;20746;-84
2022/01/04 00:02:31;;;;;;;11.07;3.17;;;5.20;99.90;;;;;;4936828;29;20197;-82
2022/01/04 00:04:59;;;;;;;10.80;3.80;;;5.10;99.90;;;;;;4937096;29;20223;-82
2022/01/04 00:07:26;;;;;;;12.73;3.60;;;5.10;99.90;;;;;;4937309;29;20208;-84
2022/01/04 00:09:54;;;;;;;11.50;4.23;;;5.10;99.90;;;;;;4935295;29;20204;-84
2022/01/04 00:15:06;;;;;;;9.57;3.57;;;5.10;99.90;;;;;;4935273;29;20655;-82
2022/01/04 00:17:33;;;;;;;8.47;3.37;;;5.20;99.90;;;;;;4935170;29;20256;-82
2022/01/04 00:20:03;;;;;;;9.37;3.80;;;5.20;99.90;;;;;;4935045;29;20207;-82
2022/01/04 00:22:30;;;;;;;8.63;3.60;;;5.30;99.90;;;;;;4934896;29;20605;-83
2022/01/04 00:24:57;;;;;;;6.87;3.63;;;5.30;99.90;;;;;;4936009;29;20687;-82
2022/01/04 00:27:24;;;;;;;12.70;3.60;;;5.40;99.90;;;;;;4937351;29;20208;-83
2022/01/04 00:29:51;;;;;;;11.90;3.40;;;5.40;99.90;;;;;;4936846;29;20655;-82
2022/01/04 00:32:18;;;;;;;7.00;3.10;;;5.40;99.90;;;;;;4936368;29;20679;-83
2022/01/04 00:34:45;;;;;;;7.73;3.37;;;5.30;99.90;;;;;;4936357;29;20248;-81
2022/01/04 00:37:14;;;;;;;9.67;3.47;;;5.40;99.90;;;;;;4936926;29;20268;-83
2022/01/04 00:39:41;;;;;;;10.53;3.30;;;5.30;99.90;;;;;;4936294;29;20725;-84
2022/01/04 00:42:08;;;;;;;12.43;3.63;;;5.30;99.90;;;;;;4936588;29;20611;-83
2022/01/04 00:44:35;;;;;;;11.33;3.23;;;5.30;99.90;;;;;;4936182;29;20633;-83
2022/01/04 00:47:02;;;;;;;8.23;3.80;;;5.30;99.90;;;;;;4935623;29;20679;-84
2022/01/04 00:49:28;;;;;;;8.93;4.23;;;5.20;99.90;;;;;;4936282;29;20196;-84
2022/01/04 00:51:56;;;;;;;9.30;5.20;;;5.20;99.90;;;;;;4936208;29;20558;-83
2022/01/04 00:54:24;;;;;;;11.33;3.60;;;5.20;99.90;;;;;;4936479;29;20209;-82
2022/01/04 00:56:51;;;;;;;11.83;3.80;;;5.20;99.90;;;;;;4936436;29;20201;-82
2022/01/04 00:59:19;;;;;;;11.67;3.90;;;5.10;99.90;;;;;;4936564;29;20196;-83
2022/01/04 01:01:46;;;;;;;10.40;5.57;;;5.10;99.90;;;;;;4935791;29;20196;-83
2022/01/04 01:04:13;;;;;;;18.00;4.70;;;5.10;99.90;;;;;;4935795;29;20679;-83
2022/01/04 01:06:41;;;;;;;7.33;3.47;;;5.00;99.90;;;;;;4936301;29;20634;-84
2022/01/04 01:09:08;;;;;;;11.30;4.73;;;5.00;99.90;;;;;;4936046;29;20651;-83
2022/01/04 01:11:36;;;;;;;8.83;4.13;;;5.00;99.90;;;;;;4935950;29;20204;-83
2022/01/04 01:14:03;;;;;;;7.93;3.80;;;5.00;99.90;;;;;;4936293;29;20264;-84
2022/01/04 01:16:30;;;;;;;13.77;4.17;;;5.00;99.90;;;;;;4936247;29;20264;-84
2022/01/04 01:18:57;;;;;;;13.37;4.13;;;5.00;99.90;;;;;;4935469;29;20663;-84
2022/01/04 01:21:24;;;;;;;8.23;3.70;;;5.00;99.90;;;;;;4936204;29;20193;-83
2022/01/04 01:23:51;;;;;;;10.60;3.80;;;5.00;99.90;;;;;;4935678;29;20197;-82
2022/01/04 01:26:18;;;;;;;8.97;4.00;;;5.00;99.90;;;;;;4935979;29;20248;-83
2022/01/04 01:28:47;;;;;;;8.97;3.80;;;5.00;99.90;;;;;;4935382;29;20196;-82
2022/01/04 01:31:14;;;;;;;14.10;4.77;;;5.00;99.90;;;;;;4935680;29;20260;-83
2022/01/04 01:33:41;;;;;;;9.23;4.27;;;5.00;99.90;;;;;;4934990;29;20276;-83
2022/01/04 01:36:08;;;;;;;12.77;4.30;;;5.00;99.90;;;;;;4936001;29;20204;-83
2022/01/04 01:38:35;;;;;;;9.63;4.40;;;5.00;99.90;;;;;;4934856;29;20602;-82
2022/01/04 01:41:02;;;;;;;13.33;4.80;;;5.00;99.90;;;;;;4935538;29;20275;-83
2022/01/04 01:43:29;;;;;;;12.03;5.00;;;5.00;99.90;;;;;;4935604;29;20224;-83
2022/01/04 01:45:58;;;;;;;18.03;5.40;;;5.10;99.90;;;;;;4935996;29;20220;-83
2022/01/04 01:48:26;;;;;;;16.20;6.90;;;5.10;99.90;;;;;;4935637;29;20615;-82
2022/01/04 01:50:54;;;;;;;11.57;6.43;;;5.10;99.90;;;;;;4926012;29;20223;-81
2022/01/04 01:53:21;;;;;;;10.63;5.83;;;5.20;99.90;;;;;;4923105;29;20663;-84
2022/01/04 01:55:49;;;;;;;13.87;6.57;;;5.20;99.90;;;;;;4935654;29;20201;-84
2022/01/04 01:58:19;;;;;;;16.90;6.90;;;5.30;99.90;;;;;;4934711;29;20707;-82
2022/01/04 02:00:46;;;;;;;13.03;5.30;;;5.30;99.90;;;;;;4935097;29;20264;-82
2022/01/04 02:03:14;;;;;;;10.97;4.97;;;5.40;99.90;;;;;;4934683;29;20531;-83
2022/01/04 02:05:41;;;;;;;12.23;4.87;;;5.40;99.90;;;;;;4935022;29;20216;-83
2022/01/04 02:08:10;;;;;;;10.87;4.53;;;5.50;99.90;;;;;;4935414;29;20279;-84
2022/01/04 02:10:37;;;;;;;14.20;6.63;;;5.50;99.90;;;;;;4935197;29;20189;-83
2022/01/04 02:13:04;;;;;;;7.87;3.63;;;5.50;99.90;;;;;;4934554;29;20653;-84
2022/01/04 02:15:33;;;;;;;11.30;4.20;;;5.50;99.90;;;;;;4935323;29;20208;-84
2022/01/04 02:18:01;;;;;;;8.87;4.17;;;5.50;99.90;;;;;;4935127;29;20236;-82
2022/01/04 02:20:30;;;;;;;10.90;4.40;;;5.60;99.90;;;;;;4934776;29;20193;-83
2022/01/04 02:22:57;;;;;;;12.13;4.30;;;5.60;99.90;;;;;;4935053;29;20200;-83
2022/01/04 02:25:24;;;;;;;9.63;3.97;;;5.60;99.90;;;;;;4935303;29;20212;-85
2022/01/04 02:27:53;;;;;;;9.13;3.93;;;5.60;99.90;;;;;;4934242;29;20534;-84
2022/01/04 02:30:21;;;;;;;8.50;3.57;;;5.60;99.90;;;;;;4935124;29;20299;-85
2022/01/04 02:32:49;;;;;;;10.67;3.73;;;5.60;99.90;;;;;;4934030;29;20702;-83
2022/01/04 02:35:19;;;;;;;5.97;3.13;;;5.50;99.90;;;;;;4934744;29;20605;-83
2022/01/04 02:37:47;;;;;;;6.07;3.13;;;5.50;99.90;;;;;;4934464;29;20719;-83
2022/01/04 02:40:14;;;;;;;8.03;3.40;;;5.50;99.90;;;;;;4935024;29;20201;-84
2022/01/04 02:42:42;;;;;;;6.87;3.37;;;5.40;99.90;;;;;;4934681;29;20197;-83
2022/01/04 02:45:10;;;;;;;8.17;3.43;;;5.40;99.90;;;;;;4934619;29;20767;-84
2022/01/04 02:47:37;;;;;;;7.13;3.77;;;5.40;99.90;;;;;;4934181;29;20632;-83
2022/01/04 02:50:06;;;;;;;12.37;5.87;;;5.40;99.90;;;;;;4934677;29;20601;-83
2022/01/04 02:52:33;;;;;;;9.63;3.27;;;5.40;99.90;;;;;;4934197;29;20651;-84
2022/01/04 02:55:02;;;;;;;9.33;3.30;;;5.30;99.90;;;;;;4935283;29;20247;-84
2022/01/04 02:57:29;;;;;;;6.33;3.77;;;5.30;99.90;;;;;;4934929;29;20247;-83
2022/01/04 02:59:56;;;;;;;9.30;3.87;;;5.30;99.90;;;;;;4916592;29;20196;-83
2022/01/04 03:02:23;;;;;;;6.63;3.90;;;5.40;99.90;;;;;;4932246;29;20200;-83
2022/01/04 03:04:50;;;;;;;8.70;3.10;;;5.30;99.90;;;;;;4934952;29;20215;-83
2022/01/04 03:07:17;;;;;;;5.17;2.37;;;5.30;99.90;;;;;;4934115;29;20718;-83
2022/01/04 03:09:44;;;;;;;7.57;2.83;;;5.30;99.90;;;;;;4937121;29;20188;-82
2022/01/04 03:12:13;;;;;;;6.83;3.30;;;5.40;99.90;;;;;;4937998;29;20229;-83
2022/01/04 03:14:40;;;;;;;8.23;2.90;;;5.40;99.90;;;;;;4938448;29;20197;-83
2022/01/04 03:17:07;;;;;;;10.83;2.93;;;5.30;99.90;;;;;;4937750;29;20268;-84
2022/01/04 03:19:34;;;;;;;9.73;5.80;;;5.40;99.90;;;;;;4938234;29;20197;-84
2022/01/04 03:22:01;;;;;;;8.23;3.50;;;5.40;99.90;;;;;;4938345;29;20256;-83
2022/01/04 03:24:28;;;;;;;5.07;2.40;;;5.30;99.90;;;;;;4938395;29;20197;-82
2022/01/04 03:26:55;;;;;;;8.80;2.53;;;5.30;99.90;;;;;;4937821;29;20281;-82
2022/01/04 03:29:24;;;;;;;6.53;3.40;;;5.30;99.90;;;;;;4937685;29;20613;-83
2022/01/04 03:31:52;;;;;;;7.90;3.00;;;5.30;99.90;;;;;;4937775;29;20244;-83
2022/01/04 03:34:19;;;;;;;7.80;2.63;;;5.30;99.90;;;;;;4938234;29;20220;-84
2022/01/04 03:36:46;;;;;;;8.20;3.17;;;5.40;99.90;;;;;;4936891;29;20200;-82
2022/01/04 03:39:14;;;;;;;7.40;3.00;;;5.40;99.90;;;;;;4938120;29;20196;-83
2022/01/04 03:41:43;;;;;;;8.10;2.97;;;5.40;99.90;;;;;;4937368;29;20662;-83
2022/01/04 03:44:15;;;;;;;7.50;2.60;;;5.40;99.90;;;;;;4937191;29;20727;-83
2022/01/04 03:46:43;;;;;;;9.90;4.70;;;5.50;99.90;;;;;;4937653;29;20298;-84
2022/01/04 03:49:10;;;;;;;6.90;3.80;;;5.50;99.90;;;;;;4937320;29;20196;-83
2022/01/04 03:51:37;;;;;;;9.47;6.63;;;5.50;99.90;;;;;;4937319;29;20208;-82
2022/01/04 03:54:04;;;;;;;8.07;3.73;;;5.50;99.90;;;;;;4937193;29;20193;-81
2022/01/04 03:56:31;;;;;;;6.13;2.80;;;5.50;99.90;;;;;;4937417;29;20216;-83
2022/01/04 03:58:58;;;;;;;8.20;3.03;;;5.60;99.90;;;;;;4937502;29;20248;-83
2022/01/04 04:01:25;;;;;;;9.27;2.80;;;5.60;99.90;;;;;;4936985;29;20201;-82
2022/01/04 04:03:54;;;;;;;6.30;3.13;;;5.60;99.90;;;;;;4937633;29;20197;-81
2022/01/04 04:06:21;;;;;;;5.10;2.97;;;5.70;99.90;;;;;;4937212;29;20217;-83
2022/01/04 04:08:48;;;;;;;7.00;2.60;;;5.70;99.90;;;;;;4937338;29;20194;-83
2022/01/04 04:11:15;;;;;;;5.33;2.87;;;5.70;99.90;;;;;;4937541;29;20647;-83
2022/01/04 04:13:42;;;;;;;6.90;2.77;;;5.70;99.90;;;;;;4936706;29;20193;-83
2022/01/04 04:16:09;;;;;;;6.40;2.70;;;5.70;99.90;;;;;;4937003;29;20252;-83
2022/01/04 04:18:36;;;;;;;8.40;3.13;;;5.70;99.90;;;;;;4936683;29;20248;-84
2022/01/04 04:21:04;;;;;;;8.20;2.83;;;5.80;99.90;;;;;;4936078;29;20197;-84
2022/01/04 04:23:31;;;;;;;5.57;3.03;;;5.80;99.90;;;;;;4936916;29;20257;-84
2022/01/04 04:26:00;;;;;;;7.20;2.97;;;5.70;99.90;;;;;;4937138;29;20217;-83
2022/01/04 04:28:27;;;;;;;7.27;2.90;;;5.80;99.90;;;;;;4936533;29;20197;-84
2022/01/04 04:30:55;;;;;;;7.07;2.77;;;5.80;99.90;;;;;;4936913;29;20194;-83
2022/01/04 04:33:23;;;;;;;5.23;2.87;;;5.80;99.90;;;;;;4936458;29;20226;-83
2022/01/04 04:35:50;;;;;;;7.43;2.63;;;5.80;99.90;;;;;;4937060;29;20198;-84
2022/01/04 04:38:18;;;;;;;6.93;2.83;;;5.90;99.90;;;;;;4936294;29;20528;-84
2022/01/04 04:40:45;;;;;;;7.93;3.70;;;5.90;99.90;;;;;;4936682;29;20652;-84
2022/01/04 04:43:13;;;;;;;8.27;4.50;;;5.90;99.90;;;;;;4934986;29;20205;-83
2022/01/04 04:45:40;;;;;;;4.37;2.57;;;5.90;99.90;;;;;;4936622;29;20221;-84
2022/01/04 04:48:07;;;;;;;8.23;2.67;;;6.00;99.90;;;;;;4936684;29;20193;-84
2022/01/04 04:50:34;;;;;;;11.20;5.40;;;6.00;99.90;;;;;;4936700;29;20610;-84
2022/01/04 04:53:02;;;;;;;6.63;3.27;;;6.00;99.90;;;;;;4936048;29;20189;-83
2022/01/04 04:55:30;;;;;;;6.97;2.70;;;6.00;99.90;;;;;;4936273;29;20213;-83
2022/01/04 04:57:58;;;;;;;8.37;2.43;;;6.00;99.90;;;;;;4936281;29;20197;-84
2022/01/04 05:00:25;;;;;;;6.27;2.73;;;6.00;99.90;;;;;;4935921;29;20189;-84
2022/01/04 05:02:52;;;;;;;5.03;3.00;;;6.00;99.90;;;;;;4936208;29;20198;-84
2022/01/04 05:05:19;;;;;;;9.77;4.10;;;6.00;99.90;;;;;;4936459;29;20264;-82
2022/01/04 05:07:46;;;;;;;6.90;2.60;;;6.00;99.90;;;;;;4935973;29;20254;-85
2022/01/04 05:10:13;;;;;;;8.20;3.30;;;6.00;99.90;;;;;;4935864;29;20667;-84
2022/01/04 05:12:41;;;;;;;7.37;3.23;;;6.00;99.90;;;;;;4936081;29;20201;-83
2022/01/04 05:15:11;;;;;;;11.03;3.20;;;6.00;99.90;;;;;;4936193;29;20606;-83
2022/01/04 05:17:38;;;;;;;9.93;2.90;;;5.90;99.90;;;;;;4936191;29;20213;-83
2022/01/04 05:20:06;;;;;;;8.30;3.07;;;5.90;99.90;;;;;;4936376;29;20610;-85
2022/01/04 05:22:33;;;;;;;8.43;3.03;;;5.90;99.90;;;;;;4935196;29;20197;-83
2022/01/04 05:25:00;;;;;;;7.30;3.50;;;5.90;99.90;;;;;;4936162;29;20248;-84
2022/01/04 05:27:27;;;;;;;8.23;3.60;;;5.90;99.90;;;;;;4935346;29;20687;-81
2022/01/04 05:29:58;;;;;;;13.47;4.50;;;5.90;99.90;;;;;;4935510;29;20655;-81
2022/01/04 05:32:25;;;;;;;7.50;3.77;;;5.80;99.90;;;;;;4934929;29;21060;-83
2022/01/04 05:34:52;;;;;;;10.03;4.07;;;5.80;99.90;;;;;;4935510;29;20189;-83
2022/01/04 05:37:19;;;;;;;5.70;3.90;;;5.80;99.90;;;;;;4935548;29;20655;-84
2022/01/04 05:39:46;;;;;;;10.23;4.30;;;5.70;99.90;;;;;;4936059;29;20197;-84
2022/01/04 05:42:13;;;;;;;16.40;10.40;;;5.70;99.90;;;;;;4926976;29;20206;-85
2022/01/04 05:44:40;;;;;;;7.30;4.00;;;5.70;99.90;;;;;;4918244;29;20253;-83
2022/01/04 05:47:09;;;;;;;8.47;4.20;;;5.70;99.90;;;;;;4921168;29;20209;-82
2022/01/04 05:49:37;;;;;;;8.97;4.70;;;5.60;99.90;;;;;;4931269;29;20194;-82
2022/01/04 05:52:05;;;;;;;8.90;5.10;;;5.60;99.90;;;;;;4915533;29;20563;-84
2022/01/04 05:54:33;;;;;;;11.83;5.20;;;5.60;99.90;;;;;;4920276;29;20265;-82
2022/01/04 05:57:00;;;;;;;9.90;6.17;;;5.60;99.90;;;;;;4919388;29;20256;-82
2022/01/04 05:59:26;;;;;;;13.23;5.80;;;5.50;99.90;;;;;;4917256;29;20663;-83
2022/01/04 06:01:53;;;;;;;8.87;5.37;;;5.50;99.90;;;;;;4916272;29;20618;-83
2022/01/04 06:04:22;;;;;;;11.73;5.00;;;5.50;99.90;;;;;;4916000;29;20201;-84
2022/01/04 06:06:50;;;;;;;11.60;6.47;;;5.40;99.90;;;;;;4917758;29;20229;-83
2022/01/04 06:09:22;;;;;;;12.93;6.60;;;5.40;99.90;;;;;;4934996;29;20196;-84
2022/01/04 06:11:59;;;;;;;12.93;6.87;;;5.30;99.90;;;;;;4924919;29;20578;-83
2022/01/04 06:17:11;;;;;;;17.30;8.40;;;5.30;99.90;;;;;;4920280;29;20192;-84
2022/01/04 06:19:40;;;;;;;15.93;7.87;;;5.30;99.90;;;;;;4927626;29;20193;-83
2022/01/04 06:22:08;;;;;;;18.47;8.30;;;5.30;99.90;;;;;;4916292;29;20198;-83
2022/01/04 06:24:36;;;;;;;15.33;7.10;;;5.30;99.90;;;;;;4932157;29;20196;-84
2022/01/04 06:27:07;;;;;;;14.00;8.10;;;5.30;99.90;;;;;;4933360;29;20303;-83
2022/01/04 06:29:35;;;;;;;15.03;7.63;;;5.30;99.90;;;;;;4934813;29;20272;-83
2022/01/04 06:32:02;;;;;;;13.93;8.80;;;5.30;99.90;;;;;;4934265;29;20197;-84
2022/01/04 06:34:29;;;;;;;17.47;8.60;;;5.30;99.90;;;;;;4934385;29;20185;-82
2022/01/04 06:36:57;;;;;;;17.13;10.33;;;5.30;99.90;;;;;;4934627;29;20193;-82
2022/01/04 06:39:24;;;;;;;18.70;8.73;;;5.20;99.90;;;;;;4935059;29;20244;-82
2022/01/04 06:41:51;;;;;;;19.90;9.80;;;5.20;99.90;;;;;;4935182;29;20192;-83
2022/01/04 06:44:18;;;;;;;20.33;10.50;;;5.20;99.90;;;;;;4935927;29;20659;-83
2022/01/04 06:46:46;;;;;;;27.00;11.23;;;5.20;99.90;;;;;;4938455;29;20279;-84
2022/01/04 06:49:13;;;;;;;105.43;47.57;;;5.20;99.90;;;;;;4933440;29;20203;-82
2022/01/04 06:51:40;;;;;;;112.57;41.53;;;5.20;99.90;;;;;;4939311;29;20248;-83
2022/01/04 06:54:10;;;;;;;145.10;41.00;;;5.20;99.90;;;;;;4938018;29;20730;-84
2022/01/04 06:56:37;;;;;;;155.17;50.80;;;5.20;99.90;;;;;;4938876;29;20196;-82
2022/01/04 06:59:05;;;;;;;180.60;47.00;;;5.20;99.90;;;;;;4938375;29;20196;-81
2022/01/04 07:01:33;;;;;;;102.33;27.53;;;5.20;99.90;;;;;;4937934;29;20208;-82
2022/01/04 07:04:00;;;;;;;106.83;23.10;;;5.20;99.90;;;;;;4938372;29;20208;-82
2022/01/04 07:06:27;;;;;;;60.30;17.70;;;5.20;99.90;;;;;;4938595;29;20287;-82
2022/01/04 07:08:54;;;;;;;105.80;22.77;;;5.10;99.90;;;;;;4938473;29;20257;-82
2022/01/04 07:11:23;;;;;;;107.70;21.63;;;5.20;99.90;;;;;;4938462;29;20252;-83
2022/01/04 07:13:50;;;;;;;101.10;24.57;;;5.20;99.90;;;;;;4938136;29;20276;-83
2022/01/04 07:16:17;;;;;;;85.57;20.20;;;5.20;99.90;;;;;;4938423;29;20201;-83
2022/01/04 07:18:46;;;;;;;95.23;25.17;;;5.10;99.90;;;;;;4938401;29;20189;-81
2022/01/04 07:21:13;;;;;;;96.23;15.20;;;5.20;99.90;;;;;;4938161;29;20192;-85
2022/01/04 07:23:41;;;;;;;121.30;20.40;;;5.10;99.90;;;;;;4938283;29;20204;-81
2022/01/04 07:26:11;;;;;;;84.57;17.17;;;5.10;99.90;;;;;;4938152;29;20307;-83
2022/01/04 07:28:40;;;;;;;102.80;15.10;;;5.10;99.90;;;;;;4938180;29;20276;-83
2022/01/04 07:31:07;;;;;;;151.77;28.77;;;5.10;99.90;;;;;;4938132;29;20264;-82
2022/01/04 07:33:34;;;;;;;156.33;32.57;;;5.10;99.90;;;;;;4937838;29;20359;-83
2022/01/04 07:36:01;;;;;;;107.27;28.30;;;5.10;99.90;;;;;;4937858;29;20207;-84
2022/01/04 07:38:28;;;;;;;104.67;17.23;;;5.10;99.90;;;;;;4937609;29;20244;-84
2022/01/04 07:41:06;;;;;;;92.03;15.43;;;5.10;99.90;;;;;;4947710;29;20204;-87
2022/01/04 07:43:40;;;;;;;96.77;20.10;;;5.10;99.90;;;;;;4950956;29;20189;-83
2022/01/04 07:46:08;;;;;;;118.80;26.13;;;5.10;99.90;;;;;;4948466;29;20220;-83
2022/01/04 07:48:47;;;;;;;107.73;22.07;;;5.20;99.90;;;;;;4946544;29;20267;-83
2022/01/04 07:51:31;;;;;;;102.90;22.33;;;5.10;99.90;;;;;;4952857;29;20179;-84
2022/01/04 07:54:26;;;;;;;81.80;18.40;;;5.20;99.90;;;;;;4959713;29;20208;-84
2022/01/04 07:57:30;;;;;;;91.10;16.30;;;5.20;99.90;;;;;;4960109;29;20268;-86
2022/01/04 08:00:22;;;;;;;;;;;;;;;;;;;;;
2022/01/04 08:03:45;;;;;;;93.73;13.93;;;5.20;99.90;;;;;;4910194;29;20232;-84
2022/01/04 08:06:51;;;;;;;89.20;17.53;;;5.20;99.90;;;;;;4881986;29;20212;-82
2022/01/04 08:13:51;;;;;;;137.77;30.00;;;5.30;99.90;;;;;;4939826;29;20203;-84
2022/01/04 08:16:20;;;;;;;90.60;17.57;;;5.30;99.90;;;;;;4871535;29;20205;-83
2022/01/04 08:19:23;;;;;;;92.27;18.70;;;5.40;99.90;;;;;;4962672;29;20184;-83
2022/01/04 08:22:03;;;;;;;97.10;21.40;;;5.40;99.90;;;;;;4936586;29;20273;-87
2022/01/04 08:25:03;;;;;;;83.13;16.60;;;5.40;99.90;;;;;;4972600;29;20203;-86
2022/01/04 08:27:43;;;;;;;104.17;36.43;;;5.40;99.90;;;;;;4972172;29;20276;-83
2022/01/04 08:33:22;;;;;;;36.43;7.87;;;5.40;99.90;;;;;;4949973;29;20264;-84
2022/01/04 08:35:49;;;;;;;31.75;9.10;;;5.40;99.90;;;;;;4937808;29;20200;-82
2022/01/04 08:38:16;;;;;;;26.10;9.37;;;5.40;99.90;;;;;;4944916;29;20196;-83
2022/01/04 08:40:43;;;;;;;17.33;6.70;;;5.40;99.90;;;;;;4943184;29;20229;-84
2022/01/04 08:43:10;;;;;;;34.17;7.23;;;5.50;99.90;;;;;;4941142;29;20726;-82
2022/01/04 08:45:38;;;;;;;28.47;10.13;;;5.50;99.90;;;;;;4944853;29;20197;-85
2022/01/04 08:48:10;;;;;;;22.33;7.67;;;5.50;99.90;;;;;;4943422;29;20209;-84
2022/01/04 08:50:37;;;;;;;19.47;7.83;;;5.50;99.90;;;;;;4944916;28;20209;-83
2022/01/04 08:56:43;;;;;;;17.57;7.37;;;5.50;99.90;;;;;;4940952;29;20233;-84
2022/01/04 08:59:25;;;;;;;167.33;125.77;;;5.60;99.90;;;;;;4938766;29;20240;-83
2022/01/04 09:01:55;;;;;;;27.47;9.37;;;5.60;99.90;;;;;;4941654;29;20236;-84
2022/01/04 09:04:29;;;;;;;23.57;9.40;;;5.60;99.90;;;;;;4943311;29;20216;-85
2022/01/04 09:06:57;;;;;;;27.83;8.30;;;5.60;99.90;;;;;;4941060;29;20229;-83
2022/01/04 09:09:24;;;;;;;29.83;9.23;;;5.70;99.90;;;;;;4939889;29;20197;-83
2022/01/04 09:12:00;;;;;;;35.70;13.73;;;5.70;99.90;;;;;;4943377;29;20624;-83
2022/01/04 09:14:41;;;;;;;30.83;15.83;;;5.80;99.90;;;;;;4942608;29;20256;-84
2022/01/04 09:19:57;;;;;;;37.93;16.27;;;5.90;99.90;;;;;;4940188;29;20184;-86
2022/01/04 09:22:33;;;;;;;33.73;13.77;;;6.00;99.90;;;;;;4944849;29;20256;-86
2022/01/04 09:25:18;;;;;;;27.80;12.60;;;6.00;99.90;;;;;;4940372;29;20604;-85
2022/01/04 09:27:52;;;;;;;25.27;13.13;;;6.00;99.90;;;;;;4952129;29;20212;-85
2022/01/04 09:30:31;;;;;;;27.53;12.43;;;6.10;99.90;;;;;;4955336;29;20223;-84
2022/01/04 09:33:24;;;;;;;30.37;13.27;;;6.10;99.90;;;;;;4954057;29;20230;-86
2022/01/04 09:35:53;;;;;;;24.23;13.67;;;6.10;99.90;;;;;;4950193;29;20197;-85
2022/01/04 09:38:21;;;;;;;25.13;12.00;;;6.10;99.90;;;;;;4941446;29;20198;-84
2022/01/04 09:41:18;;;;;;;33.10;17.37;;;6.20;99.90;;;;;;4953344;29;20212;-84
2022/01/04 09:44:25;;;;;;;26.93;16.77;;;6.20;99.90;;;;;;4954700;29;20197;-85
2022/01/04 09:50:49;;;;;;;31.23;16.50;;;6.20;99.90;;;;;;4778998;30;20211;-85
2022/01/04 10:03:16;;;;;;;23.80;15.03;;;6.40;99.90;;;;;;4892184;29;20212;-84
2022/01/04 10:05:44;;;;;;;26.57;12.97;;;6.60;99.90;;;;;;4881987;29;20201;-84
2022/01/04 10:08:13;;;;;;;25.03;15.03;;;6.60;99.90;;;;;;4928009;29;20257;-85
2022/01/04 10:17:31;;;;;;;23.13;16.43;;;6.70;99.90;;;;;;4949079;29;20166;-86
2022/01/04 10:19:59;;;;;;;18.70;12.67;;;6.70;99.90;;;;;;4938443;29;20182;-83
2022/01/04 10:22:28;;;;;;;21.30;14.50;;;6.70;99.90;;;;;;4938622;29;20263;-86
2022/01/04 10:25:16;;;;;;;34.07;23.80;;;6.80;99.90;;;;;;4941514;29;20209;-85
2022/01/04 10:27:51;;;;;;;21.10;13.33;;;6.80;99.90;;;;;;4942132;29;20279;-86
2022/01/04 10:30:30;;;;;;;17.90;9.60;;;6.80;99.90;;;;;;4943674;29;20214;-84
2022/01/04 10:33:08;;;;;;;24.33;13.80;;;6.70;99.90;;;;;;4942915;29;20219;-85
2022/01/04 10:35:41;;;;;;;16.93;10.57;;;6.70;99.90;;;;;;4922145;29;20188;-84
2022/01/04 10:38:24;;;;;;;20.23;12.00;;;6.70;99.90;;;;;;4927671;29;20187;-85
2022/01/04 10:41:28;;;;;;;;;;;;;;;;;;;;;
2022/01/04 10:44:47;;;;;;;36.40;17.63;;;6.70;99.90;;;;;;4950330;29;20212;-85
2022/01/04 10:47:26;;;;;;;22.73;13.20;;;6.70;99.90;;;;;;4934560;29;20234;-85
2022/01/04 10:56:04;;;;;;;28.63;18.37;;;6.70;99.90;;;;;;4849906;29;20211;-85
2022/01/04 10:58:36;;;;;;;17.03;10.23;;;6.70;99.90;;;;;;4848397;29;20264;-84
2022/01/04 11:01:09;;;;;;;16.03;9.67;;;6.70;99.90;;;;;;4861220;29;20325;-84
2022/01/04 11:03:40;;;;;;;19.13;11.97;;;6.70;99.90;;;;;;4939673;29;20198;-83
2022/01/04 11:06:30;;;;;;;25.57;15.67;;;6.70;99.90;;;;;;4939624;29;20207;-83
2022/01/04 11:08:59;;;;;;;17.03;10.70;;;6.70;99.90;;;;;;4941417;29;20219;-87
2022/01/04 11:11:27;;;;;;;27.67;17.27;;;6.80;99.90;;;;;;4941821;29;20744;-86
2022/01/04 11:31:44;;;;;;;21.03;13.37;;;6.90;99.90;;;;;;4847975;29;20218;-85
2022/01/04 11:34:20;;;;;;;24.30;14.90;;;6.90;99.90;;;;;;4923319;29;20282;-84
2022/01/04 11:36:51;;;;;;;24.23;16.43;;;6.90;99.90;;;;;;4940383;29;20246;-84
2022/01/04 11:39:33;;;;;;;23.70;16.23;;;7.00;99.90;;;;;;4941522;29;20193;-82
2022/01/04 11:42:03;;;;;;;27.23;19.07;;;7.00;99.90;;;;;;4939953;29;20188;-83
2022/01/04 11:44:32;;;;;;;20.10;12.77;;;7.00;99.90;;;;;;4941237;29;20202;-83
2022/01/04 11:47:04;;;;;;;34.27;19.50;;;7.00;99.90;;;;;;4920530;29;20611;-83
2022/01/04 11:49:31;;;;;;;20.10;11.50;;;7.00;99.90;;;;;;4920997;29;20221;-84
2022/01/04 11:51:58;;;;;;;17.00;10.53;;;7.00;99.90;;;;;;4920772;29;20201;-83
2022/01/04 11:54:28;;;;;;;23.17;11.40;;;6.90;99.90;;;;;;4922921;29;20200;-83
2022/01/04 11:56:57;;;;;;;26.77;14.53;;;7.00;99.90;;;;;;4938093;29;20199;-83
2022/01/04 11:59:26;;;;;;;26.97;16.17;;;6.90;99.90;;;;;;4937653;29;20198;-83
2022/01/04 12:01:54;;;;;;;29.13;18.67;;;7.00;99.90;;;;;;4937391;29;20266;-84
2022/01/04 12:04:52;;;;;;;21.97;11.67;;;6.90;99.90;;;;;;4936607;29;20665;-84
2022/01/04 12:07:47;;;;;;;22.57;12.27;;;7.00;99.90;;;;;;4937252;29;20691;-83
2022/01/04 12:10:41;;;;;;;18.90;10.90;;;6.90;99.90;;;;;;4937482;29;20220;-83
2022/01/04 12:13:11;;;;;;;20.93;11.43;;;7.00;99.90;;;;;;4931796;29;20208;-83
2022/01/04 12:15:46;;;;;;;24.30;11.90;;;7.00;99.90;;;;;;4936448;29;20657;-83
2022/01/04 12:19:00;;;;;;;25.97;13.30;;;7.00;99.90;;;;;;4937200;29;20729;-83
2022/01/04 12:21:37;;;;;;;26.43;13.60;;;7.00;99.90;;;;;;4937588;29;20200;-83
2022/01/04 12:24:06;;;;;;;29.17;14.80;;;7.00;99.90;;;;;;4937223;29;20242;-83
2022/01/04 12:26:34;;;;;;;27.37;13.57;;;7.00;99.90;;;;;;4936531;29;20550;-83
2022/01/04 12:29:20;;;;;;;25.73;13.67;;;7.00;99.90;;;;;;4937366;29;20235;-83
2022/01/04 12:31:50;;;;;;;29.30;13.53;;;7.10;99.90;;;;;;4937205;29;20247;-84
2022/01/04 12:34:33;;;;;;;27.77;13.37;;;7.10;99.90;;;;;;4936918;29;20634;-83
2022/01/04 12:37:03;;;;;;;28.93;13.87;;;7.10;99.90;;;;;;4917258;29;20657;-84
2022/01/04 12:39:45;;;;;;;25.17;13.77;;;7.20;99.90;;;;;;4920190;29;20199;-84
2022/01/04 12:42:16;;;;;;;31.13;15.63;;;7.20;99.90;;;;;;4919582;29;20415;-84
2022/01/04 12:44:49;;;;;;;33.23;17.60;;;7.20;99.90;;;;;;4919010;29;20193;-84
2022/01/04 12:47:18;;;;;;;54.80;24.37;;;7.20;99.90;;;;;;4947238;29;20246;-88
2022/01/04 12:49:45;;;;;;;60.47;26.57;;;7.30;99.90;;;;;;4942752;29;20266;-86
2022/01/04 12:52:17;;;;;;;41.03;18.80;;;7.30;99.90;;;;;;4937014;29;20208;-83
2022/01/04 12:54:44;;;;;;;39.77;19.67;;;7.30;99.90;;;;;;4936003;29;20194;-83
2022/01/04 12:57:14;;;;;;;65.30;25.50;;;7.30;99.90;;;;;;4936809;29;20565;-83
2022/01/04 12:59:43;;;;;;;84.83;31.50;;;7.40;99.90;;;;;;4936354;29;20729;-83
2022/01/04 13:02:13;;;;;;;66.27;26.57;;;7.40;99.90;;;;;;4936298;29;20662;-83
2022/01/04 13:04:45;;;;;;;43.97;21.13;;;7.40;99.90;;;;;;4935672;29;20275;-83
2022/01/04 13:07:22;;;;;;;31.70;16.00;;;7.40;99.90;;;;;;4936674;29;20192;-83
2022/01/04 13:09:51;;;;;;;26.43;14.70;;;7.40;99.90;;;;;;4936176;29;20215;-83
2022/01/04 13:12:23;;;;;;;43.97;20.47;;;7.40;99.90;;;;;;4936371;29;20263;-83
2022/01/04 13:14:51;;;;;;;69.60;28.93;;;7.40;99.90;;;;;;4935185;29;20623;-83
2022/01/04 13:17:18;;;;;;;97.03;29.97;;;7.30;99.90;;;;;;4936322;29;20201;-83
2022/01/04 13:19:46;;;;;;;90.77;28.37;;;7.40;99.90;;;;;;4936285;29;20269;-82
2022/01/04 13:22:14;;;;;;;66.13;24.23;;;7.30;99.90;;;;;;4939378;29;20691;-82
2022/01/04 13:24:45;;;;;;;49.63;20.40;;;7.40;99.90;;;;;;4935237;29;20199;-82
2022/01/04 13:27:22;;;;;;;76.17;30.87;;;7.30;99.90;;;;;;4936247;29;20249;-82
2022/01/04 13:29:50;;;;;;;82.17;35.60;;;7.30;99.90;;;;;;4935724;29;20209;-83
2022/01/04 13:32:17;;;;;;;105.00;37.10;;;7.30;99.90;;;;;;4935516;29;20246;-82
2022/01/04 13:34:45;;;;;;;135.00;60.97;;;7.20;99.90;;;;;;4934463;29;20538;-81
2022/01/04 13:37:12;;;;;;;108.70;43.33;;;7.30;99.90;;;;;;4935653;29;20199;-81
2022/01/04 13:39:39;;;;;;;88.47;46.10;;;7.20;99.90;;;;;;4935635;29;20632;-82
2022/01/04 13:42:34;;;;;;;28.10;16.87;;;7.20;99.90;;;;;;4935485;29;20721;-83
2022/01/04 13:45:06;;;;;;;26.80;15.23;;;7.20;99.90;;;;;;4935238;29;20187;-83
2022/01/04 13:47:34;;;;;;;33.97;23.73;;;7.20;99.90;;;;;;4936068;29;20195;-83
2022/01/04 13:50:13;;;;;;;25.83;16.90;;;7.20;99.90;;;;;;4936091;29;20309;-83
2022/01/04 13:52:41;;;;;;;52.93;33.67;;;7.20;99.90;;;;;;4935260;29;20234;-83
2022/01/04 13:55:09;;;;;;;37.97;24.80;;;7.10;99.90;;;;;;4934584;29;20265;-83
2022/01/04 13:57:38;;;;;;;32.13;19.40;;;7.10;99.90;;;;;;4935295;29;20660;-83
2022/01/04 14:00:28;;;;;;;33.47;23.03;;;7.10;99.90;;;;;;4935610;29;20250;-84
2022/01/04 14:02:55;;;;;;;27.40;17.23;;;7.10;99.90;;;;;;4935582;29;20191;-82
2022/01/04 14:05:22;;;;;;;30.00;18.00;;;7.10;99.90;;;;;;4934964;29;20198;-83
2022/01/04 14:08:00;;;;;;;45.33;28.23;;;7.10;99.90;;;;;;4935080;29;20199;-83
2022/01/04 14:10:47;;;;;;;33.00;21.10;;;7.00;99.90;;;;;;4935298;29;20202;-84